Flight Track Log - Related Links

Times and Time Zones

All times are in EDT time to prevent confusion due to time zone crossing. See the SBE970 flight status page for this flight to view local times or setup timezone preferences in your user account.

Time Position Orientation Groundspeed Altitude Reporting Facility
EDT Latitude Longitude Course Direction KTS MPH feet Rate Location/Type
Thu 06:01:39 PM 33.8189 -100.6311 98° East 363 418 25,000  Level Fort Worth Center
Thu 06:02:39 PM 33.8411 -100.4894 79° East 392 451 25,700 1,300 Climbing Fort Worth Center
Thu 06:03:39 PM 33.8633 -100.3475 79° East 415 478 27,600 1,900 Climbing Fort Worth Center
Thu 06:04:39 PM 33.8853 -100.2106 79° East 415 478 29,500 1,650 Climbing Fort Worth Center
Thu 06:05:39 PM 33.9069 -100.0786 79° East 409 471 30,900 750 Climbing Fort Worth Center
Thu 06:06:00 PM 33.4223 -99.9119 98° East  Level Estimated
Thu 06:06:39 PM 33.9267 -99.9392 80° East 414 476 31,000  Level Fort Worth Center
Thu 06:07:39 PM 33.9108 -99.7836 97° East 442 509 31,000  Level Fort Worth Center
Thu 06:08:39 PM 33.8761 -99.6350 106° East 447 514 31,000  Level Fort Worth Center
Thu 06:09:39 PM 33.8453 -99.4767 103° East 459 528 31,000  Level Fort Worth Center
Thu 06:10:39 PM 33.8144 -99.3158 103° East 473 544 31,000  Level Fort Worth Center
Thu 06:11:39 PM 33.7856 -99.1603 103° East 478 550 31,000  Level Fort Worth Center
Thu 06:12:39 PM 33.7542 -99.0047 104° East 473 544 31,000 -300 Level Fort Worth Center
Thu 06:13:39 PM 33.7247 -98.8519 103° East 473 544 30,400 -1,600 Descending Fort Worth Center
Thu 06:14:39 PM 33.6931 -98.6942 104° East 473 544 27,800 -2,600 Descending Fort Worth Center
Thu 06:15:39 PM 33.6631 -98.5439 103° East 473 544 25,200 -2,600 Descending Fort Worth Center
Thu 06:16:39 PM 33.6353 -98.3989 103° East 461 531 22,600 -2,600 Descending Fort Worth Center
Thu 06:17:39 PM 33.6092 -98.2589 103° East 441 507 20,000 -2,350 Descending Fort Worth Center
Thu 06:18:39 PM 33.5786 -98.1267 105° East 427 491 17,900 -2,250 Descending Fort Worth Center
Thu 06:19:39 PM 33.5542 -97.9992 103° East 399 459 15,500 -2,500 Descending Fort Worth Center
Thu 06:20:39 PM 33.5275 -97.8719 104° East 386 444 12,900 -2,500 Descending Fort Worth Center
Thu 06:21:39 PM 33.5031 -97.7547 104° East 386 444 10,500 -1,850 Descending Fort Worth Center
Thu 06:22:39 PM 33.4844 -97.6625 104° East 341 392 9,200 -1,700 Descending Fort Worth Center
Thu 06:23:39 PM 33.4658 -97.5678 103° East 300 345 7,100 -1,950 Descending Fort Worth Center
Thu 06:24:39 PM 33.4492 -97.4831 103° East 281 323 5,300 -1,050 Descending Fort Worth Center
Thu 06:25:39 PM 33.3864 -97.4061 134° Southeast 275 316 5,000 -150 Descending Fort Worth Center
Thu 06:26:39 PM 33.3739 -97.3114 99° East 260 299 5,000  Level Fort Worth Center
Thu 06:27:39 PM 33.3633 -97.2319 99° East 260 299 5,000  Level Fort Worth Center
Thu 06:28:39 PM 33.3258 -97.1425 117° Southeast 266 306 5,000 -250 Level Fort Worth Center
Thu 06:29:39 PM 33.2881 -97.0756 124° Southeast 276 318 4,500 -500 Descending Fort Worth Center
Thu 06:30:39 PM 33.2336 -97.0011 131° Southeast 276 318 4,000 -250 Descending Fort Worth Center
Thu 06:31:39 PM 33.1917 -96.9392 129° Southeast 251 289 4,000 -150 Level Fort Worth Center
Thu 06:32:39 PM 33.1411 -96.8725 132° Southeast 257 296 3,700 -500 Descending Fort Worth Center
Thu 06:33:39 PM 33.0867 -96.8133 138° Southeast 264 304 3,000 -538 Descending Fort Worth Center
Thu 06:33:57 PM 33.0667 -96.8000 151° Southeast 255 293 3,000  Level Dallas / Fort Worth TRACON
Thu 06:34:57 PM 33.0167 -96.7667 151° Southeast 236 272 3,000  Level Dallas / Fort Worth TRACON
Thu 06:35:51 PM 32.9500 -96.7333 157° South 236 272 3,000  Level Dallas / Fort Worth TRACON
Thu 06:36:57 PM 32.8833 -96.7167 168° South 253 291 3,000 -238 Level Dallas / Fort Worth TRACON
Thu 06:37:57 PM 32.8500 -96.7500 220° Southwest 143 165 2,500 -400 Descending Dallas / Fort Worth TRACON
Thu 06:38:57 PM 32.8667 -96.7833 301° West 135 155 2,200 -300 Descending Dallas / Fort Worth TRACON
Thu 06:39:57 PM 32.9000 -96.8000 337° Northwest 130 150 1,900 -450 Descending Dallas / Fort Worth TRACON
Thu 06:40:57 PM 32.9333 -96.8167 337° Northwest 121 139 1,300 -600 Descending Dallas / Fort Worth TRACON
Thu 06:42:00 PM 32.9667 -96.8333 310° West  Level FlightAware Approximate

Login

Don't have an account? Register now (free) for customized features, flight alerts, and more!